Time;durP1;ratioP1;P1;durP2;ratioP2;P2;SDS_P1;SDS_P2;PMS_P1;PMS_P2;Temp;Humidity;BMP_temperature;BMP_pressure;BME280_temperature;BME280_humidity;BME280_pressure;Samples;Min_cycle;Max_cycle;Signal;HPM_P1;HPM_P2
2022/08/02 00:00:13;;;;;;;9.65;4.40;;;11.70;99.90;;;;;;4995392;28;20042;-91
2022/08/02 00:02:40;;;;;;;14.18;5.00;;;11.60;99.90;;;;;;5013182;28;20042;-91
2022/08/02 00:05:06;;;;;;;13.50;4.80;;;11.70;99.90;;;;;;5012251;28;20108;-91
2022/08/02 00:07:32;;;;;;;14.63;5.45;;;11.60;99.90;;;;;;5012478;28;20053;-90
2022/08/02 00:09:58;;;;;;;13.73;4.88;;;12.60;99.90;;;;;;4995562;28;20061;-90
2022/08/02 00:12:24;;;;;;;11.80;4.47;;;11.60;99.90;;;;;;4994662;28;20042;-90
2022/08/02 00:14:50;;;;;;;12.60;4.72;;;11.60;99.90;;;;;;4995655;28;20053;-91
2022/08/02 00:17:15;;;;;;;14.02;4.80;;;11.60;99.90;;;;;;5013530;28;20041;-91
2022/08/02 00:19:41;;;;;;;12.50;4.97;;;11.70;99.90;;;;;;4998540;28;20105;-90
2022/08/02 00:22:07;;;;;;;12.27;5.20;;;11.70;99.90;;;;;;4998749;28;20042;-90
2022/08/02 00:24:32;;;;;;;14.68;5.32;;;11.70;99.90;;;;;;5016579;28;20089;-90
2022/08/02 00:26:58;;;;;;;14.43;5.32;;;11.70;99.90;;;;;;4998375;28;20084;-90
2022/08/02 00:29:24;;;;;;;14.13;5.40;;;11.70;99.90;;;;;;5003372;28;20045;-90
2022/08/02 00:31:49;;;;;;;11.68;5.00;;;11.70;99.90;;;;;;5016849;28;20053;-91
2022/08/02 00:34:15;;;;;;;11.98;4.65;;;11.70;99.90;;;;;;5016312;28;20049;-90
2022/08/02 00:36:41;;;;;;;12.65;5.07;;;11.70;99.90;;;;;;4999322;28;20618;-90
2022/08/02 00:39:07;;;;;;;13.88;5.00;;;11.70;99.90;;;;;;4998486;28;20490;-90
2022/08/02 00:41:32;;;;;;;13.10;5.50;;;11.80;99.90;;;;;;5015177;28;20046;-90
2022/08/02 00:43:58;;;;;;;12.85;5.70;;;11.80;99.90;;;;;;5008749;28;20046;-91
2022/08/02 00:46:23;;;;;;;12.20;5.28;;;11.80;99.90;;;;;;4998948;28;20042;-91
2022/08/02 00:48:49;;;;;;;12.93;5.22;;;11.80;99.90;;;;;;4998826;28;20122;-90
2022/08/02 00:51:15;;;;;;;12.45;4.35;;;11.80;99.90;;;;;;4998734;28;20056;-91
2022/08/02 00:53:41;;;;;;;14.93;4.82;;;12.40;99.90;;;;;;4998444;28;20133;-90
2022/08/02 00:56:07;;;;;;;9.90;4.68;;;12.10;99.90;;;;;;4998953;28;20100;-90
2022/08/02 00:58:33;;;;;;;10.60;4.60;;;11.80;99.90;;;;;;5005128;28;20050;-91
2022/08/02 01:01:00;;;;;;;11.20;4.82;;;11.70;99.90;;;;;;4998107;28;20049;-90
2022/08/02 01:03:26;;;;;;;13.55;4.90;;;11.70;99.90;;;;;;4998712;28;20042;-90
2022/08/02 01:05:52;;;;;;;12.98;5.35;;;11.70;99.90;;;;;;4997967;28;20140;-90
2022/08/02 01:08:18;;;;;;;14.70;5.70;;;11.60;99.90;;;;;;4997815;28;20136;-90
2022/08/02 01:10:44;;;;;;;13.65;5.20;;;11.70;99.90;;;;;;5015874;28;20042;-90
2022/08/02 01:13:10;;;;;;;16.33;5.22;;;11.60;99.90;;;;;;4998448;28;20145;-90
2022/08/02 01:15:42;;;;;;;11.95;5.10;;;11.60;99.90;;;;;;4998004;28;20544;-90
2022/08/02 01:18:46;;;;;;;12.95;4.78;;;11.50;99.90;;;;;;5015943;28;20042;-90
2022/08/02 01:21:32;;;;;;;11.15;4.78;;;11.50;99.90;;;;;;4955298;28;20554;-89
2022/08/02 01:24:19;;;;;;;13.25;5.10;;;11.50;99.90;;;;;;5012478;28;20481;-89
2022/08/02 01:27:00;;;;;;;15.32;5.10;;;11.40;99.90;;;;;;5015346;28;20046;-90
2022/08/02 01:29:30;;;;;;;12.73;5.18;;;11.40;99.90;;;;;;5035498;23;20045;-90
2022/08/02 01:32:07;;;;;;;15.55;5.72;;;11.30;99.90;;;;;;5036643;28;20044;-89
2022/08/02 01:34:41;;;;;;;14.95;5.82;;;11.30;99.90;;;;;;5037905;28;20053;-90
2022/08/02 01:37:15;;;;;;;12.90;5.90;;;11.30;99.90;;;;;;5036292;28;20037;-90
2022/08/02 01:39:43;;;;;;;15.32;6.18;;;11.30;99.90;;;;;;5055194;28;20396;-90
2022/08/02 01:42:09;;;;;;;15.80;6.43;;;11.20;99.90;;;;;;5037315;28;20049;-90
2022/08/02 01:44:38;;;;;;;13.30;6.22;;;11.20;99.90;;;;;;5054662;28;20049;-90
2022/08/02 01:47:14;;;;;;;13.38;5.90;;;11.20;99.90;;;;;;5037968;28;20045;-90
2022/08/02 01:49:43;;;;;;;14.25;5.90;;;11.10;99.90;;;;;;5063233;28;20041;-90
2022/08/02 01:52:22;;;;;;;14.70;6.47;;;11.10;99.90;;;;;;5052209;28;20076;-91
2022/08/02 01:55:08;;;;;;;14.23;5.93;;;11.10;99.90;;;;;;5045117;28;20037;-90
2022/08/02 01:57:40;;;;;;;13.23;6.45;;;11.10;99.90;;;;;;5026979;23;20053;-90
2022/08/02 02:00:08;;;;;;;16.08;6.45;;;11.10;99.90;;;;;;5034664;28;20055;-90
2022/08/02 02:02:36;;;;;;;13.30;6.75;;;11.10;99.90;;;;;;5014396;28;20042;-89
2022/08/02 02:05:03;;;;;;;16.25;6.63;;;11.10;99.90;;;;;;5013087;28;20592;-90
2022/08/02 02:07:32;;;;;;;16.50;6.18;;;11.10;99.90;;;;;;5014342;28;20042;-90
2022/08/02 02:09:59;;;;;;;16.52;6.57;;;11.00;99.90;;;;;;4997287;28;20045;-89
2022/08/02 02:12:27;;;;;;;14.98;6.47;;;11.00;99.90;;;;;;5014817;28;20402;-89
2022/08/02 02:14:54;;;;;;;17.63;6.80;;;11.80;99.90;;;;;;5026249;28;20036;-90
2022/08/02 02:17:21;;;;;;;18.30;7.13;;;11.00;99.90;;;;;;5017732;28;20050;-90
2022/08/02 02:19:48;;;;;;;13.40;6.47;;;11.30;99.90;;;;;;4999111;28;20128;-89
2022/08/02 02:22:14;;;;;;;15.07;6.65;;;11.50;99.90;;;;;;4997467;28;20038;-90
2022/08/02 02:24:39;;;;;;;17.25;7.35;;;11.00;99.90;;;;;;5000389;28;20054;-90
2022/08/02 02:27:07;;;;;;;17.00;6.75;;;10.90;99.90;;;;;;4996252;28;20529;-89
2022/08/02 02:29:36;;;;;;;15.65;6.47;;;10.90;99.90;;;;;;4997229;28;20046;-90
2022/08/02 02:32:04;;;;;;;13.63;6.70;;;10.90;99.90;;;;;;5013990;28;20056;-91
2022/08/02 02:34:38;;;;;;;14.82;7.07;;;10.90;99.90;;;;;;4996711;28;20104;-90
2022/08/02 02:37:07;;;;;;;16.60;6.50;;;11.20;99.90;;;;;;5014893;28;20050;-90
2022/08/02 02:39:34;;;;;;;16.70;6.40;;;11.50;99.90;;;;;;5013697;28;20494;-89
2022/08/02 02:42:02;;;;;;;19.63;7.90;;;10.80;99.90;;;;;;4996753;28;20539;-90
2022/08/02 02:44:30;;;;;;;18.25;6.97;;;10.90;99.90;;;;;;4995767;28;20374;-90
2022/08/02 02:46:57;;;;;;;14.57;6.57;;;10.80;99.90;;;;;;4996024;28;20085;-90
2022/08/02 02:49:24;;;;;;;16.35;6.60;;;10.80;99.90;;;;;;5014520;28;20048;-90
2022/08/02 02:51:51;;;;;;;13.82;6.30;;;10.80;99.90;;;;;;5014220;28;20053;-90
2022/08/02 02:54:19;;;;;;;16.52;5.72;;;10.80;99.90;;;;;;4996133;28;20061;-89
2022/08/02 02:56:45;;;;;;;14.52;5.30;;;10.80;99.90;;;;;;5013553;28;20058;-90
2022/08/02 02:59:14;;;;;;;15.68;6.72;;;10.80;99.90;;;;;;4996827;28;20042;-90
2022/08/02 03:01:39;;;;;;;16.80;7.20;;;10.80;99.90;;;;;;4996245;28;20053;-90
2022/08/02 03:04:08;;;;;;;13.32;5.78;;;10.80;99.90;;;;;;4996005;28;20042;-89
2022/08/02 03:06:36;;;;;;;13.73;6.20;;;10.80;99.90;;;;;;5013773;28;20041;-89
2022/08/02 03:09:03;;;;;;;15.23;6.38;;;10.80;99.90;;;;;;5013255;28;20061;-89
2022/08/02 03:11:30;;;;;;;12.57;5.95;;;10.80;99.90;;;;;;4996786;28;20453;-90
2022/08/02 03:14:00;;;;;;;13.77;5.55;;;10.80;99.90;;;;;;5013077;28;20425;-91
2022/08/02 03:16:27;;;;;;;15.75;6.88;;;10.70;99.90;;;;;;5013404;28;20108;-89
2022/08/02 03:18:54;;;;;;;17.08;8.15;;;10.70;99.90;;;;;;5013854;28;20048;-90
2022/08/02 03:21:19;;;;;;;13.45;6.03;;;10.70;99.90;;;;;;5013039;28;20060;-90
2022/08/02 03:23:46;;;;;;;15.50;6.55;;;10.70;99.90;;;;;;5013519;28;20042;-90
2022/08/02 03:26:12;;;;;;;16.83;6.22;;;10.70;99.90;;;;;;4996058;28;20069;-90
2022/08/02 03:28:38;;;;;;;12.70;6.30;;;11.10;99.90;;;;;;4995788;28;20393;-90
2022/08/02 03:31:04;;;;;;;16.58;6.18;;;10.60;99.90;;;;;;5002019;28;20046;-90
2022/08/02 03:33:30;;;;;;;14.30;6.13;;;10.60;99.90;;;;;;4995933;28;20136;-89
2022/08/02 03:36:02;;;;;;;13.93;6.20;;;10.60;99.90;;;;;;4994908;28;20104;-90
2022/08/02 03:38:31;;;;;;;15.85;5.95;;;10.50;99.90;;;;;;4995966;28;20544;-88
2022/08/02 03:41:00;;;;;;;13.43;5.72;;;10.50;99.90;;;;;;4995989;28;20050;-90
2022/08/02 03:43:26;;;;;;;12.40;5.30;;;10.50;99.90;;;;;;5013041;28;20157;-90
2022/08/02 03:45:52;;;;;;;12.27;5.55;;;10.50;99.90;;;;;;4995271;28;20061;-89
2022/08/02 03:48:19;;;;;;;14.60;5.72;;;10.50;99.90;;;;;;4995364;28;20049;-90
2022/08/02 03:50:46;;;;;;;14.45;5.85;;;10.50;99.90;;;;;;5014829;28;20097;-90
2022/08/02 03:53:14;;;;;;;13.48;6.20;;;10.50;99.90;;;;;;5001808;28;20069;-90
2022/08/02 03:55:40;;;;;;;13.07;5.97;;;10.50;99.90;;;;;;4995263;28;20490;-90
2022/08/02 03:58:06;;;;;;;15.73;6.30;;;10.50;99.90;;;;;;4994510;28;20050;-90
2022/08/02 04:00:31;;;;;;;14.00;6.03;;;10.50;99.90;;;;;;4999254;28;20068;-89
2022/08/02 04:02:57;;;;;;;19.45;6.93;;;10.60;99.90;;;;;;5031949;28;20052;-89
2022/08/02 04:05:23;;;;;;;14.95;6.45;;;10.60;99.90;;;;;;5013663;28;20041;-89
2022/08/02 04:07:50;;;;;;;20.95;6.72;;;11.00;99.90;;;;;;5034404;28;22329;-88
2022/08/02 04:10:17;;;;;;;19.10;5.97;;;10.60;99.90;;;;;;5015035;28;20137;-90
2022/08/02 04:12:43;;;;;;;16.23;6.70;;;10.60;99.90;;;;;;5014668;28;20045;-90
2022/08/02 04:15:12;;;;;;;14.52;6.25;;;10.70;99.90;;;;;;5015118;28;20048;-90
2022/08/02 04:17:55;;;;;;;16.42;6.47;;;10.70;99.90;;;;;;5035637;28;20049;-90
2022/08/02 04:20:28;;;;;;;15.13;6.15;;;10.70;99.90;;;;;;5033007;28;20080;-90
2022/08/02 04:23:03;;;;;;;13.82;6.07;;;10.70;99.90;;;;;;5032788;28;20091;-90
2022/08/02 04:25:31;;;;;;;15.02;6.35;;;10.80;99.90;;;;;;5032228;28;20042;-89
2022/08/02 04:27:58;;;;;;;14.63;6.30;;;10.80;99.90;;;;;;5014469;28;20041;-90
2022/08/02 04:30:24;;;;;;;15.48;6.60;;;10.90;99.90;;;;;;5033056;28;20052;-90
2022/08/02 04:32:51;;;;;;;14.15;6.70;;;10.90;99.90;;;;;;5032238;28;20045;-89
2022/08/02 04:35:17;;;;;;;15.25;6.57;;;10.90;99.90;;;;;;5015156;28;20103;-90
2022/08/02 04:37:43;;;;;;;16.80;7.32;;;11.00;99.90;;;;;;5014969;28;20042;-90
2022/08/02 04:40:11;;;;;;;14.02;6.88;;;11.10;99.90;;;;;;5032092;28;20049;-90
2022/08/02 04:42:36;;;;;;;15.35;7.40;;;11.10;99.90;;;;;;5033008;28;20045;-90
2022/08/02 04:45:03;;;;;;;17.33;6.95;;;11.30;99.90;;;;;;5036070;28;20316;-90
2022/08/02 04:47:29;;;;;;;15.32;6.88;;;11.30;99.90;;;;;;5047807;28;20053;-90
2022/08/02 04:49:55;;;;;;;18.42;7.03;;;11.30;99.90;;;;;;5039542;28;20049;-90
2022/08/02 04:52:20;;;;;;;16.20;6.47;;;11.70;99.90;;;;;;5046634;28;20038;-90
2022/08/02 04:54:46;;;;;;;15.93;7.00;;;11.40;99.90;;;;;;5022533;28;20401;-90
2022/08/02 04:59:55;;;;;;;15.40;6.10;;;11.60;99.90;;;;;;5010648;28;20050;-89
2022/08/02 05:02:21;;;;;;;14.40;6.20;;;11.70;99.90;;;;;;4994987;28;20042;-89
2022/08/02 05:04:47;;;;;;;14.73;6.53;;;11.80;99.90;;;;;;4994821;28;20128;-89
2022/08/02 05:07:12;;;;;;;15.13;7.00;;;11.90;99.90;;;;;;4995568;23;20521;-89
2022/08/02 05:09:38;;;;;;;22.00;6.72;;;11.90;99.90;;;;;;4959500;28;20042;-90
2022/08/02 05:12:04;;;;;;;13.02;7.10;;;12.00;99.90;;;;;;4959209;28;20051;-90
2022/08/02 05:14:30;;;;;;;12.60;6.40;;;12.10;99.90;;;;;;4959175;28;20043;-91
2022/08/02 05:16:55;;;;;;;15.70;6.53;;;12.10;99.90;;;;;;4959408;28;20150;-91
2022/08/02 05:19:21;;;;;;;16.85;7.32;;;12.30;99.90;;;;;;4977190;28;20047;-90
2022/08/02 05:21:46;;;;;;;14.38;6.75;;;12.30;99.90;;;;;;4976111;28;20082;-90
2022/08/02 05:24:12;;;;;;;15.10;6.88;;;12.40;99.90;;;;;;4965611;28;20054;-89
2022/08/02 05:26:38;;;;;;;16.92;7.35;;;12.70;99.90;;;;;;4988442;22;20051;-90
2022/08/02 05:29:19;;;;;;;16.15;6.45;;;13.20;99.90;;;;;;5037958;28;20041;-90
2022/08/02 05:31:45;;;;;;;18.23;6.70;;;12.60;99.90;;;;;;5017908;28;20049;-90
2022/08/02 05:34:29;;;;;;;16.63;6.72;;;13.70;99.90;;;;;;5018142;28;20045;-90
2022/08/02 05:36:55;;;;;;;16.67;6.65;;;13.80;99.90;;;;;;5034321;28;20433;-90
2022/08/02 05:39:21;;;;;;;15.00;6.13;;;13.30;99.90;;;;;;5017588;28;20045;-90
2022/08/02 05:41:46;;;;;;;15.35;6.57;;;13.70;99.90;;;;;;5034761;28;20037;-89
2022/08/02 05:44:27;;;;;;;17.05;6.72;;;13.70;99.90;;;;;;5016752;28;20433;-89
2022/08/02 05:46:53;;;;;;;15.27;6.85;;;14.10;99.90;;;;;;5017245;28;20041;-90
2022/08/02 05:49:19;;;;;;;14.25;6.90;;;13.90;99.90;;;;;;5016931;28;20034;-90
2022/08/02 05:52:36;;;;;;;13.07;6.88;;;13.30;99.90;;;;;;5016865;28;20454;-90
2022/08/02 05:56:03;;;;;;;18.63;6.57;;;13.10;99.90;;;;;;5017074;28;20081;-91
2022/08/02 05:58:58;;;;;;;17.52;7.07;;;13.50;99.90;;;;;;4920128;29;20388;-90
2022/08/02 06:01:31;;;;;;;16.23;6.90;;;14.70;99.90;;;;;;4937490;29;20055;-90
2022/08/02 06:04:25;;;;;;;16.55;6.43;;;13.70;99.90;;;;;;4939546;29;20453;-89
2022/08/02 06:07:12;;;;;;;15.77;6.10;;;14.40;99.90;;;;;;4919361;29;20066;-90
2022/08/02 06:09:40;;;;;;;14.38;6.68;;;15.10;99.90;;;;;;4935531;29;20047;-89
2022/08/02 06:12:30;;;;;;;13.60;6.10;;;14.00;99.90;;;;;;4936241;29;20055;-90
2022/08/02 06:14:58;;;;;;;14.30;6.07;;;15.10;99.90;;;;;;4936991;29;20051;-90
2022/08/02 06:17:42;;;;;;;15.32;6.18;;;13.50;99.90;;;;;;4921767;29;20048;-89
2022/08/02 06:20:34;;;;;;;13.13;6.30;;;14.40;99.90;;;;;;4939736;29;20488;-90
2022/08/02 06:23:18;;;;;;;13.43;5.97;;;14.20;99.90;;;;;;4919422;29;20040;-90
2022/08/02 06:25:49;;;;;;;15.13;6.53;;;14.70;99.90;;;;;;4983982;28;20049;-90
2022/08/02 06:31:01;;;;;;;14.88;6.25;;;14.80;99.90;;;;;;5033621;28;20056;-89
2022/08/02 06:33:27;;;;;;;13.23;6.57;;;15.40;99.90;;;;;;5016444;28;20046;-83
2022/08/02 06:36:09;;;;;;;12.93;6.50;;;14.30;99.90;;;;;;5014600;28;20049;-83
2022/08/02 06:39:05;;;;;;;13.90;6.15;;;15.10;99.90;;;;;;5033434;28;20122;-84
2022/08/02 06:41:57;;;;;;;14.98;6.45;;;15.20;99.90;;;;;;5016383;28;20064;-84
2022/08/02 06:44:23;;;;;;;16.70;6.95;;;15.40;99.90;;;;;;5016220;28;20048;-83
2022/08/02 06:46:49;;;;;;;16.60;6.45;;;15.50;99.90;;;;;;5015542;28;20477;-85
2022/08/02 06:49:33;;;;;;;19.77;6.78;;;15.60;99.90;;;;;;5033795;28;20048;-83
2022/08/02 06:51:59;;;;;;;14.65;6.80;;;15.80;99.90;;;;;;5015953;28;20041;-83
2022/08/02 06:54:25;;;;;;;21.30;6.13;;;16.00;99.90;;;;;;5015242;28;20098;-84
2022/08/02 06:56:50;;;;;;;14.70;6.68;;;16.60;99.90;;;;;;5016289;28;20401;-83
2022/08/02 06:59:16;;;;;;;13.52;6.45;;;16.20;99.90;;;;;;5039835;28;20052;-86
2022/08/02 07:01:42;;;;;;;18.17;5.65;;;16.30;99.90;;;;;;5033547;28;20041;-86
2022/08/02 07:04:08;;;;;;;11.35;5.57;;;17.00;99.90;;;;;;5033665;28;20046;-86
2022/08/02 07:06:35;;;;;;;15.27;5.97;;;16.60;99.90;;;;;;5015348;28;20045;-86
2022/08/02 07:09:00;;;;;;;10.85;5.80;;;16.60;99.90;;;;;;5015910;28;20453;-86
2022/08/02 07:11:44;;;;;;;12.43;5.65;;;16.80;99.90;;;;;;5015678;28;20128;-86
2022/08/02 07:14:10;;;;;;;;;;;17.50;99.90;;;;;;5008298;28;20172;-86
2022/08/02 07:16:57;;;;;;;12.70;5.45;;;17.10;99.90;;;;;;5001058;28;20016;-86
2022/08/02 07:19:23;;;;;;;13.23;5.22;;;17.20;99.90;;;;;;5013558;28;20517;-86
2022/08/02 07:22:11;;;;;;;13.57;5.03;;;17.50;99.90;;;;;;5013013;28;20038;-86
2022/08/02 07:24:42;;;;;;;11.32;4.85;;;18.00;99.90;;;;;;4917716;29;20547;-86
2022/08/02 07:27:31;;;;;;;12.43;4.78;;;17.80;99.90;;;;;;5038892;23;20021;-86
2022/08/02 07:30:48;;;;;;;12.68;4.60;;;18.70;99.90;;;;;;5014228;28;20493;-87
2022/08/02 07:33:40;;;;;;;11.20;5.00;;;18.10;99.90;;;;;;5014606;28;20082;-85
2022/08/02 07:36:14;;;;;;;11.82;4.43;;;18.40;99.90;;;;;;5032066;28;20107;-86
2022/08/02 07:38:42;;;;;;;11.50;3.78;;;19.10;99.90;;;;;;5015615;28;20042;-86
2022/08/02 07:41:08;;;;;;;9.48;3.45;;;18.80;99.90;;;;;;5015193;28;20386;-84
2022/08/02 07:43:50;;;;;;;10.05;3.58;;;19.20;99.90;;;;;;5014592;28;20047;-88
2022/08/02 07:46:34;;;;;;;8.85;3.67;;;19.00;99.90;;;;;;5015437;28;20041;-86
2022/08/02 07:49:00;;;;;;;9.73;3.05;;;19.60;99.90;;;;;;5024260;28;20039;-86
2022/08/02 07:51:25;;;;;;;9.80;3.35;;;18.70;99.90;;;;;;5040281;28;20057;-83
2022/08/02 07:53:51;;;;;;;9.40;3.20;;;19.40;99.90;;;;;;5036139;28;20059;-83
2022/08/02 07:56:17;;;;;;;8.80;2.90;;;18.90;99.90;;;;;;5019179;28;20510;-86
2022/08/02 07:58:42;;;;;;;8.63;2.83;;;19.30;99.90;;;;;;5013243;28;20042;-84
2022/08/02 08:01:08;;;;;;;9.15;2.55;;;19.70;99.90;;;;;;4995631;28;20065;-83
2022/08/02 08:03:34;;;;;;;9.00;2.78;;;19.20;99.90;;;;;;5012264;28;20398;-83
2022/08/02 08:06:00;;;;;;;11.70;3.03;;;19.40;99.90;;;;;;4995030;28;20056;-83
2022/08/02 08:08:25;;;;;;;8.85;3.05;;;19.40;99.90;;;;;;4995532;28;20045;-83
2022/08/02 08:10:51;;;;;;;8.48;2.75;;;19.80;99.90;;;;;;4994351;28;20417;-83
2022/08/02 08:13:17;;;;;;;9.07;2.95;;;19.90;99.90;;;;;;4997804;28;20482;-83
2022/08/02 08:15:43;;;;;;;10.43;2.78;;;20.50;99.90;;;;;;5012983;28;20129;-84
2022/08/02 08:18:09;;;;;;;7.53;2.40;;;20.30;99.90;;;;;;4994384;28;20053;-84
2022/08/02 08:20:34;;;;;;;8.10;2.83;;;20.40;99.90;;;;;;5012811;28;20050;-83
2022/08/02 08:23:00;;;;;;;8.65;2.40;;;20.50;99.90;;;;;;4995128;28;20058;-84
2022/08/02 08:25:25;;;;;;;9.27;2.88;;;20.60;99.90;;;;;;5002434;28;20531;-84
2022/08/02 08:27:51;;;;;;;7.88;2.72;;;20.60;99.90;;;;;;5005286;28;20129;-84
2022/08/02 08:30:21;;;;;;;8.93;2.50;;;20.70;99.90;;;;;;5000833;28;20053;-84
2022/08/02 08:32:47;;;;;;;9.48;3.65;;;20.70;99.90;;;;;;5011756;28;20042;-83
2022/08/02 08:35:13;;;;;;;10.25;2.80;;;20.80;99.90;;;;;;4994872;28;20053;-83
2022/08/02 08:37:39;;;;;;;9.90;2.92;;;20.70;99.90;;;;;;5011848;28;20045;-84
2022/08/02 08:40:06;;;;;;;9.40;2.72;;;21.40;99.90;;;;;;4994612;28;20144;-84
2022/08/02 08:42:32;;;;;;;8.23;2.50;;;21.00;99.90;;;;;;4997292;28;20081;-84
2022/08/02 08:44:59;;;;;;;8.90;2.75;;;21.10;99.90;;;;;;4997610;28;20050;-84
2022/08/02 08:47:39;;;;;;;7.82;2.60;;;21.90;99.90;;;;;;4999253;28;20050;-84
2022/08/02 08:50:08;;;;;;;7.53;2.28;;;21.70;99.90;;;;;;4998605;28;20128;-85
2022/08/02 08:52:42;;;;;;;8.75;2.70;;;21.70;99.90;;;;;;4998278;28;20056;-85
2022/08/02 08:55:14;;;;;;;9.98;2.63;;;21.90;99.90;;;;;;5016207;28;20500;-85
2022/08/02 08:57:42;;;;;;;11.23;2.83;;;21.80;99.90;;;;;;5016465;28;20049;-85
2022/08/02 09:00:11;;;;;;;8.60;2.70;;;21.90;99.90;;;;;;5087907;22;20046;-84
2022/08/02 09:02:40;;;;;;;7.07;2.47;;;21.90;99.90;;;;;;4979038;28;20061;-85
2022/08/02 09:05:09;;;;;;;9.07;3.10;;;22.00;99.90;;;;;;4978840;28;20068;-84
2022/08/02 09:07:34;;;;;;;8.95;2.72;;;22.40;99.90;;;;;;4995708;28;20038;-83
2022/08/02 09:10:00;;;;;;;7.38;2.50;;;22.20;99.90;;;;;;4996101;28;20042;-83
2022/08/02 09:12:26;;;;;;;7.07;2.40;;;22.20;99.90;;;;;;4978906;28;20047;-84
2022/08/02 09:14:51;;;;;;;8.50;2.70;;;22.40;99.90;;;;;;4977601;28;20042;-83
2022/08/02 09:17:17;;;;;;;8.43;2.60;;;22.40;99.90;;;;;;4978574;28;20058;-86
2022/08/02 09:19:43;;;;;;;9.50;2.70;;;22.60;99.90;;;;;;5001118;28;20145;-84
2022/08/02 09:22:11;;;;;;;11.07;2.75;;;22.50;99.90;;;;;;4982939;28;20505;-84
2022/08/02 09:24:45;;;;;;;8.00;2.75;;;22.70;99.90;;;;;;4995666;28;20084;-83
2022/08/02 09:27:14;;;;;;;12.80;2.90;;;22.80;99.90;;;;;;4977864;28;20050;-84
2022/08/02 09:29:44;;;;;;;7.93;3.03;;;23.20;99.90;;;;;;4978392;28;20057;-86
2022/08/02 09:32:12;;;;;;;7.53;2.70;;;23.10;99.90;;;;;;4978222;28;20060;-86
2022/08/02 09:34:44;;;;;;;8.63;2.80;;;23.30;99.90;;;;;;4977587;28;20498;-87
2022/08/02 09:37:27;;;;;;;9.40;2.75;;;23.60;99.90;;;;;;4978414;28;20042;-85
2022/08/02 09:39:59;;;;;;;8.70;2.70;;;23.60;99.90;;;;;;4978040;28;20050;-86
2022/08/02 09:42:25;;;;;;;7.90;2.65;;;23.60;99.90;;;;;;4995117;28;20082;-85
2022/08/02 09:45:01;;;;;;;9.05;2.75;;;23.80;99.90;;;;;;4977728;28;20050;-85
2022/08/02 09:47:28;;;;;;;9.85;2.40;;;23.90;99.90;;;;;;4995876;28;20045;-85
2022/08/02 09:49:56;;;;;;;9.88;2.40;;;24.10;99.90;;;;;;4977081;28;20053;-85
2022/08/02 09:52:26;;;;;;;6.93;2.40;;;24.20;99.90;;;;;;4978170;28;20121;-83
2022/08/02 09:54:52;;;;;;;8.43;2.38;;;24.40;99.90;;;;;;4977332;28;20401;-83
2022/08/02 09:57:26;;;;;;;8.13;2.33;;;24.50;99.90;;;;;;4976965;28;20047;-81
2022/08/02 09:59:54;;;;;;;8.18;2.40;;;24.80;99.90;;;;;;4995162;28;20418;-81
2022/08/02 10:02:20;;;;;;;7.10;2.30;;;25.10;99.90;;;;;;4994851;28;20743;-82
2022/08/02 10:04:45;;;;;;;7.40;2.40;;;25.10;99.90;;;;;;4995210;28;20125;-83
2022/08/02 10:07:11;;;;;;;9.00;2.70;;;25.30;99.90;;;;;;4977775;28;20081;-82
2022/08/02 10:09:37;;;;;;;7.80;2.25;;;25.40;99.90;;;;;;4977189;28;20073;-83
2022/08/02 10:12:04;;;;;;;7.18;2.53;;;25.50;99.90;;;;;;4995329;28;20126;-82
2022/08/02 10:14:31;;;;;;;9.02;2.58;;;25.50;99.90;;;;;;4995640;28;20042;-82
2022/08/02 10:16:57;;;;;;;8.45;2.40;;;25.50;98.60;;;;;;4976900;28;20045;-81
2022/08/02 10:19:23;;;;;;;8.63;2.70;;;25.60;99.90;;;;;;4977806;28;20062;-83
2022/08/02 10:22:13;;;;;;;7.57;2.80;;;25.40;99.90;;;;;;4983916;28;20034;-83
2022/08/02 10:24:54;;;;;;;8.15;2.80;;;25.60;99.90;;;;;;4983012;28;20149;-83
2022/08/02 10:27:23;;;;;;;6.88;2.50;;;25.60;99.90;;;;;;5001757;28;20490;-84
2022/08/02 10:30:08;;;;;;;8.55;3.08;;;25.70;99.90;;;;;;4977290;28;20050;-85
2022/08/02 10:32:44;;;;;;;11.50;3.38;;;25.80;99.90;;;;;;4976851;28;20047;-84
2022/08/02 10:35:19;;;;;;;9.50;3.00;;;25.80;99.90;;;;;;4981001;28;20046;-85
2022/08/02 10:38:02;;;;;;;9.13;2.80;;;25.90;99.90;;;;;;5002517;28;20042;-84
2022/08/02 10:40:51;;;;;;;9.52;3.30;;;25.80;99.90;;;;;;4978083;28;20498;-85
2022/08/02 10:43:35;;;;;;;8.80;2.90;;;25.80;99.90;;;;;;4981500;28;20058;-85
2022/08/02 10:46:20;;;;;;;8.63;3.13;;;25.80;99.90;;;;;;4975806;28;20046;-85
2022/08/02 10:49:06;;;;;;;10.45;3.83;;;25.90;99.90;;;;;;4976953;28;20046;-85
2022/08/02 10:51:57;;;;;;;8.30;3.30;;;26.00;99.90;;;;;;5006712;28;20034;-86
2022/08/02 10:54:28;;;;;;;9.77;3.50;;;26.00;99.90;;;;;;4998541;28;20439;-85
2022/08/02 10:56:55;;;;;;;9.48;3.67;;;26.20;99.90;;;;;;4977740;28;20045;-86
2022/08/02 10:59:36;;;;;;;10.18;3.85;;;25.90;99.90;;;;;;4993698;28;20065;-82
2022/08/02 11:02:05;;;;;;;10.85;3.83;;;25.90;99.90;;;;;;4982966;28;20454;-84
2022/08/02 11:04:51;;;;;;;9.43;3.60;;;26.10;99.90;;;;;;4979287;28;20078;-85
2022/08/02 11:07:20;;;;;;;9.63;3.95;;;26.30;99.90;;;;;;5011529;28;20064;-85
2022/08/02 11:09:48;;;;;;;10.52;3.35;;;26.30;99.90;;;;;;5013446;28;20397;-85
2022/08/02 11:12:26;;;;;;;10.55;3.58;;;26.40;99.90;;;;;;4996095;28;20512;-84
2022/08/02 11:15:04;;;;;;;10.93;3.80;;;26.30;99.90;;;;;;4995477;28;20056;-84
2022/08/02 11:18:00;;;;;;;10.00;3.50;;;26.50;99.90;;;;;;4996051;28;20046;-84
2022/08/02 11:20:26;;;;;;;11.35;4.00;;;26.60;99.70;;;;;;4995313;28;20050;-84
2022/08/02 11:22:54;;;;;;;8.15;3.47;;;26.70;99.90;;;;;;5013570;28;20042;-84
2022/08/02 11:25:22;;;;;;;10.10;3.63;;;26.70;99.90;;;;;;4995614;28;20500;-84
2022/08/02 11:27:57;;;;;;;10.77;4.07;;;27.00;99.90;;;;;;4995134;28;20045;-84
2022/08/02 11:30:24;;;;;;;10.07;3.63;;;26.90;99.00;;;;;;4995888;28;20528;-84
2022/08/02 11:32:53;;;;;;;26.63;3.97;;;27.10;99.90;;;;;;5012129;28;20053;-85
2022/08/02 11:35:20;;;;;;;9.73;3.40;;;27.20;99.90;;;;;;4994801;28;20112;-84
2022/08/02 11:37:46;;;;;;;8.27;3.40;;;27.80;99.90;;;;;;4996036;28;20042;-83
2022/08/02 11:40:14;;;;;;;7.95;3.13;;;27.30;99.60;;;;;;4995772;28;20445;-82
2022/08/02 11:42:44;;;;;;;9.23;3.67;;;27.50;99.90;;;;;;4994917;28;20604;-83
2022/08/02 11:45:12;;;;;;;9.65;3.65;;;27.50;98.90;;;;;;4995850;28;20136;-84
2022/08/02 11:47:49;;;;;;;7.97;3.28;;;27.50;99.80;;;;;;4994614;28;20493;-83
2022/08/02 11:50:16;;;;;;;8.52;3.47;;;27.40;96.90;;;;;;4995659;28;20548;-87
2022/08/02 11:52:42;;;;;;;8.65;3.35;;;27.40;99.10;;;;;;4995756;28;20134;-82
2022/08/02 11:55:09;;;;;;;8.77;3.42;;;27.40;98.60;;;;;;4994648;28;20120;-82
2022/08/02 11:57:35;;;;;;;7.53;3.30;;;27.50;99.50;;;;;;4995457;28;20092;-83
2022/08/02 12:00:03;;;;;;;9.50;3.28;;;27.30;97.50;;;;;;5012398;28;20042;-83
2022/08/02 12:02:31;;;;;;;8.85;2.80;;;27.30;99.20;;;;;;4994646;28;20135;-82
2022/08/02 12:05:07;;;;;;;10.20;3.00;;;27.40;99.00;;;;;;4995003;28;20457;-82
2022/08/02 12:07:35;;;;;;;7.18;2.75;;;27.40;97.10;;;;;;5012895;28;20057;-82
2022/08/02 12:10:13;;;;;;;7.90;2.80;;;27.60;98.50;;;;;;4994140;28;20125;-82
2022/08/02 12:12:50;;;;;;;8.02;2.78;;;27.70;97.50;;;;;;5013079;28;20053;-82
2022/08/02 12:15:29;;;;;;;9.40;3.17;;;27.80;96.40;;;;;;4995040;28;20044;-82
2022/08/02 12:20:40;;;;;;;8.55;3.10;;;27.70;97.70;;;;;;5013042;28;20054;-82
2022/08/02 12:23:05;;;;;;;7.85;3.00;;;27.50;97.00;;;;;;4994238;28;20042;-82
2022/08/02 12:25:31;;;;;;;8.02;2.70;;;27.40;97.30;;;;;;5012764;28;20041;-82
2022/08/02 12:28:14;;;;;;;9.05;3.08;;;27.40;98.10;;;;;;4994871;28;20492;-83
2022/08/02 12:30:53;;;;;;;7.80;3.08;;;27.40;95.80;;;;;;4995014;28;20469;-82
2022/08/02 12:33:21;;;;;;;7.75;2.67;;;27.60;96.40;;;;;;4995050;28;20061;-83
2022/08/02 12:35:47;;;;;;;7.80;2.70;;;27.90;95.90;;;;;;4994741;28;20037;-82
2022/08/02 12:38:12;;;;;;;8.23;2.80;;;27.90;96.40;;;;;;4994261;28;20404;-83
2022/08/02 12:40:38;;;;;;;8.50;2.90;;;28.00;95.80;;;;;;5012742;28;20046;-82
2022/08/02 12:43:06;;;;;;;7.63;2.70;;;28.10;95.30;;;;;;5012516;28;20046;-81
2022/08/02 12:45:48;;;;;;;7.15;2.65;;;28.30;95.40;;;;;;4994011;28;20038;-81
2022/08/02 12:48:14;;;;;;;7.70;2.63;;;28.10;93.60;;;;;;5009768;28;20100;-80
2022/08/02 12:50:40;;;;;;;7.50;2.92;;;28.00;93.50;;;;;;5001485;28;20050;-81
2022/08/02 12:53:16;;;;;;;7.45;2.90;;;28.00;95.30;;;;;;4983638;28;20097;-81
2022/08/02 12:55:56;;;;;;;9.35;2.80;;;28.20;95.00;;;;;;5002366;28;20096;-81
2022/08/02 12:58:22;;;;;;;9.40;3.20;;;28.10;94.50;;;;;;4979166;28;20129;-81
2022/08/02 13:00:57;;;;;;;7.60;2.60;;;27.80;95.90;;;;;;4984767;28;20121;-84
2022/08/02 13:03:23;;;;;;;7.55;2.78;;;27.70;94.90;;;;;;5001560;28;20061;-85
2022/08/02 13:05:48;;;;;;;8.15;3.20;;;27.90;96.40;;;;;;5046863;23;20502;-86